»·PEaware :: N921VN KDVT-KINW

N921VN :: KDVT-KINW

FLIGHT INFORMATION

Flight Status: Arrived
Operator: Privately registered:
United States
More flights under this callsign
Pilot: Kevin M. (7)
Aircraft: CESSNA 172 SKYHAWK
(C172)
More flights by this aircraft type
Origin: KDVT Phoenix Deer Valley
United States
Destination: KINW Winslow-Lindbergh Regl
United States
More flights between these airports :: More routes between these airports
Route:
File this flight plan on PilotEdge
Remarks: alphabet challenge
Altitude:
(Current/Filed)
7,500ft
Speed:
(Current/Filed)
140kts
Departed: 20-Nov-20 09:31 AM
Arrived: 20-Nov-20 10:35 AM
Distance/Time
Traveled:
105nm/1:03
Distance/Time
To Go:
Arrived

Flight Plot

Page will automatically refresh every two minutes.

Flight plan parsing failed; only flown route is shown


Map Options




Map Legend


Flown Route
Filed Route
Departure Airport
Arrival Airport
Navaid (VOR, NDB)
Fix

Horizontal Profiles

Position Reports

Time Latitude Longitude Heading Altitude Ground
Speed
20-Nov-20 09:25 33.686014 -112.086295 177 1458ft 0kts
20-Nov-20 09:26 33.686014 -112.086295 177 1458ft 0kts
20-Nov-20 09:27 33.686014 -112.086295 177 1458ft 0kts
20-Nov-20 09:28 33.686011 -112.086294 176 1458ft 0kts
20-Nov-20 09:29 33.686399 -112.089684 265 1454ft 27kts
20-Nov-20 09:30 33.686309 -112.096251 44 1442ft 8kts
20-Nov-20 09:31 33.687638 -112.082338 84 1631ft 77kts
20-Nov-20 09:32 33.694654 -112.057856 68 2288ft 87kts
20-Nov-20 09:33 33.718271 -112.054930 14 2800ft 100kts
20-Nov-20 09:34 33.740116 -112.034569 38 3307ft 100kts
20-Nov-20 09:35 33.762450 -112.013882 38 3804ft 101kts
20-Nov-20 09:36 33.784721 -111.993285 38 4303ft 100kts
20-Nov-20 09:37 33.806892 -111.972790 38 4803ft 100kts
20-Nov-20 09:37 33.825240 -111.955807 39 5223ft 99kts
20-Nov-20 09:38 33.847096 -111.935561 38 5721ft 98kts
20-Nov-20 09:39 33.868601 -111.915660 38 6222ft 96kts
20-Nov-20 09:41 33.893291 -111.892784 39 6804ft 94kts
20-Nov-20 09:41 33.910577 -111.876764 39 7213ft 92kts
20-Nov-20 09:43 33.935453 -111.853690 39 7578ft 104kts
20-Nov-20 09:43 33.956451 -111.834236 38 7602ft 120kts
20-Nov-20 09:44 33.983590 -111.809058 39 7603ft 124kts
20-Nov-20 09:45 34.010846 -111.783696 39 7609ft 123kts
20-Nov-20 09:46 34.038192 -111.758273 38 7614ft 125kts
20-Nov-20 09:47 34.065787 -111.732600 38 7611ft 125kts
20-Nov-20 09:48 34.093363 -111.706953 39 7611ft 124kts
20-Nov-20 09:49 34.120839 -111.681351 38 7619ft 125kts
20-Nov-20 09:50 34.148462 -111.655606 38 7620ft 125kts
20-Nov-20 09:51 34.176084 -111.629865 37 7625ft 125kts
20-Nov-20 09:52 34.203705 -111.604070 38 7628ft 125kts
20-Nov-20 09:53 34.231441 -111.578169 38 7631ft 127kts
20-Nov-20 09:54 34.258848 -111.552564 38 7639ft 126kts
20-Nov-20 09:55 34.286865 -111.526365 38 7630ft 126kts
20-Nov-20 09:56 34.314797 -111.500249 38 7634ft 128kts
20-Nov-20 09:57 34.343196 -111.473647 37 7628ft 128kts
20-Nov-20 09:58 34.371276 -111.447340 37 7629ft 127kts
20-Nov-20 09:59 34.399269 -111.421098 37 7811ft 120kts
20-Nov-20 10:00 34.423327 -111.399204 36 8271ft 104kts
20-Nov-20 10:01 34.446409 -111.379687 34 8794ft 99kts
20-Nov-20 10:02 34.469116 -111.362390 29 9269ft 92kts
20-Nov-20 10:03 34.490487 -111.348498 23 9716ft 87kts
20-Nov-20 10:04 34.518352 -111.333640 21 9656ft 123kts
20-Nov-20 10:05 34.551172 -111.316917 20 9526ft 129kts
20-Nov-20 10:06 34.584541 -111.300190 20 9429ft 130kts
20-Nov-20 10:07 34.618193 -111.283537 19 9307ft 130kts
20-Nov-20 10:08 34.651708 -111.267159 19 9213ft 129kts
20-Nov-20 10:09 34.685277 -111.250959 19 9116ft 129kts
20-Nov-20 10:10 34.717915 -111.235358 19 9214ft 115kts
20-Nov-20 10:11 34.745399 -111.222767 17 9680ft 100kts
20-Nov-20 10:12 34.776056 -111.210227 16 9597ft 124kts
20-Nov-20 10:13 34.809592 -111.197029 16 9485ft 127kts
20-Nov-20 10:14 34.843309 -111.183969 16 9373ft 126kts
20-Nov-20 10:15 34.876832 -111.171201 16 9274ft 126kts
20-Nov-20 10:16 34.910461 -111.158614 15 9177ft 126kts
20-Nov-20 10:17 34.944005 -111.146271 15 9126ft 122kts
20-Nov-20 10:18 34.976033 -111.134785 15 9224ft 118kts
20-Nov-20 10:19 35.007531 -111.123984 14 9326ft 117kts
20-Nov-20 10:20 35.039057 -111.113709 13 9429ft 117kts
20-Nov-20 10:21 35.070598 -111.103972 13 9529ft 116kts
20-Nov-20 10:22 35.102195 -111.094759 12 9630ft 116kts
20-Nov-20 10:23 35.133838 -111.086080 12 9730ft 116kts
20-Nov-20 10:24 35.161062 -111.069203 71 9731ft 119kts
20-Nov-20 10:25 35.165194 -111.031727 127 9727ft 117kts
20-Nov-20 10:26 35.149519 -110.996774 119 9727ft 117kts
20-Nov-20 10:27 35.133897 -110.960966 119 9661ft 121kts
20-Nov-20 10:28 35.119041 -110.923227 119 9470ft 125kts
20-Nov-20 10:29 35.108307 -110.883046 105 9268ft 123kts
20-Nov-20 10:30 35.092117 -110.845940 139 8841ft 135kts
20-Nov-20 10:31 35.067388 -110.809096 118 7437ft 137kts
20-Nov-20 10:32 35.048693 -110.769151 123 5972ft 119kts
20-Nov-20 10:33 35.033755 -110.737542 122 5177ft 98kts
20-Nov-20 10:34 35.024272 -110.717501 120 4885ft 31kts
20-Nov-20 10:35 35.022336 -110.717697 297 4880ft 10kts
20-Nov-20 10:36 35.022478 -110.718299 27 4878ft 0kts

Navigation Log

Ident Type
Flight plan parsing failed, navigation log unavailable